sensor_id;sensor_type;location;lat;lon;timestamp;temperature;humidity
11142;DHT22;5625;50.122;19.864;2023-11-25T00:00:34;2.50;99.90
11142;DHT22;5625;50.122;19.864;2023-11-25T00:03:03;2.50;99.90
11142;DHT22;5625;50.122;19.864;2023-11-25T00:05:32;2.50;99.90
11142;DHT22;5625;50.122;19.864;2023-11-25T00:08:01;2.50;99.90
11142;DHT22;5625;50.122;19.864;2023-11-25T00:10:29;2.50;99.90
11142;DHT22;5625;50.122;19.864;2023-11-25T00:12:57;2.50;99.90
11142;DHT22;5625;50.122;19.864;2023-11-25T00:15:29;2.50;99.90
11142;DHT22;5625;50.122;19.864;2023-11-25T00:18:02;2.50;99.90
11142;DHT22;5625;50.122;19.864;2023-11-25T00:20:32;2.50;99.90
11142;DHT22;5625;50.122;19.864;2023-11-25T00:23:06;2.60;99.90
11142;DHT22;5625;50.122;19.864;2023-11-25T00:25:34;2.50;99.90
11142;DHT22;5625;50.122;19.864;2023-11-25T00:28:05;2.50;99.90
11142;DHT22;5625;50.122;19.864;2023-11-25T00:30:34;2.50;99.90
11142;DHT22;5625;50.122;19.864;2023-11-25T00:33:03;2.50;99.90
11142;DHT22;5625;50.122;19.864;2023-11-25T00:35:34;2.50;99.90
11142;DHT22;5625;50.122;19.864;2023-11-25T00:38:03;2.50;99.90
11142;DHT22;5625;50.122;19.864;2023-11-25T00:40:35;2.50;99.90
11142;DHT22;5625;50.122;19.864;2023-11-25T00:43:03;2.50;99.90
11142;DHT22;5625;50.122;19.864;2023-11-25T00:45:33;2.50;99.90
11142;DHT22;5625;50.122;19.864;2023-11-25T00:48:01;2.50;99.90
11142;DHT22;5625;50.122;19.864;2023-11-25T00:50:29;2.50;99.90
11142;DHT22;5625;50.122;19.864;2023-11-25T00:52:59;2.50;99.90
11142;DHT22;5625;50.122;19.864;2023-11-25T00:55:27;2.50;99.90
11142;DHT22;5625;50.122;19.864;2023-11-25T00:57:57;2.50;99.90
11142;DHT22;5625;50.122;19.864;2023-11-25T01:00:25;2.50;99.90
11142;DHT22;5625;50.122;19.864;2023-11-25T01:02:53;2.50;99.90
11142;DHT22;5625;50.122;19.864;2023-11-25T01:05:23;2.50;99.90
11142;DHT22;5625;50.122;19.864;2023-11-25T01:07:52;2.50;99.90
11142;DHT22;5625;50.122;19.864;2023-11-25T01:10:21;2.50;99.90
11142;DHT22;5625;50.122;19.864;2023-11-25T01:12:50;2.40;99.90
11142;DHT22;5625;50.122;19.864;2023-11-25T01:15:18;2.50;99.90
11142;DHT22;5625;50.122;19.864;2023-11-25T01:17:47;2.40;99.90
11142;DHT22;5625;50.122;19.864;2023-11-25T01:20:15;2.40;99.90
11142;DHT22;5625;50.122;19.864;2023-11-25T01:22:44;2.50;99.90
11142;DHT22;5625;50.122;19.864;2023-11-25T01:25:15;2.40;99.90
11142;DHT22;5625;50.122;19.864;2023-11-25T01:27:44;2.40;99.90
11142;DHT22;5625;50.122;19.864;2023-11-25T01:30:14;2.50;99.90
11142;DHT22;5625;50.122;19.864;2023-11-25T01:32:42;2.50;99.90
11142;DHT22;5625;50.122;19.864;2023-11-25T01:35:10;2.50;99.90
11142;DHT22;5625;50.122;19.864;2023-11-25T01:37:38;2.50;99.90
11142;DHT22;5625;50.122;19.864;2023-11-25T01:40:07;2.50;99.90
11142;DHT22;5625;50.122;19.864;2023-11-25T01:42:38;2.50;99.90
11142;DHT22;5625;50.122;19.864;2023-11-25T01:45:09;2.50;99.90
11142;DHT22;5625;50.122;19.864;2023-11-25T01:47:37;2.50;99.90
11142;DHT22;5625;50.122;19.864;2023-11-25T01:50:06;2.50;99.90
11142;DHT22;5625;50.122;19.864;2023-11-25T01:52:35;2.60;99.90
11142;DHT22;5625;50.122;19.864;2023-11-25T01:55:05;2.50;99.90
11142;DHT22;5625;50.122;19.864;2023-11-25T01:57:36;2.50;99.90
11142;DHT22;5625;50.122;19.864;2023-11-25T02:00:05;2.50;99.90
11142;DHT22;5625;50.122;19.864;2023-11-25T02:02:37;2.50;99.90
11142;DHT22;5625;50.122;19.864;2023-11-25T02:05:07;2.50;99.90
11142;DHT22;5625;50.122;19.864;2023-11-25T02:07:36;2.50;99.90
11142;DHT22;5625;50.122;19.864;2023-11-25T02:10:05;2.50;99.90
11142;DHT22;5625;50.122;19.864;2023-11-25T02:12:36;2.50;99.90
11142;DHT22;5625;50.122;19.864;2023-11-25T02:15:09;2.50;99.90
11142;DHT22;5625;50.122;19.864;2023-11-25T02:17:42;2.50;99.90
11142;DHT22;5625;50.122;19.864;2023-11-25T02:20:11;2.50;99.90
11142;DHT22;5625;50.122;19.864;2023-11-25T02:22:42;2.50;99.90
11142;DHT22;5625;50.122;19.864;2023-11-25T02:25:12;2.50;99.90
11142;DHT22;5625;50.122;19.864;2023-11-25T02:27:42;2.50;99.90
11142;DHT22;5625;50.122;19.864;2023-11-25T02:30:11;2.50;99.90
11142;DHT22;5625;50.122;19.864;2023-11-25T02:32:41;2.50;99.90
11142;DHT22;5625;50.122;19.864;2023-11-25T02:35:09;2.50;99.90
11142;DHT22;5625;50.122;19.864;2023-11-25T02:37:38;2.50;99.90
11142;DHT22;5625;50.122;19.864;2023-11-25T02:40:08;2.50;99.90
11142;DHT22;5625;50.122;19.864;2023-11-25T02:42:42;2.50;99.90
11142;DHT22;5625;50.122;19.864;2023-11-25T02:45:15;2.50;99.90
11142;DHT22;5625;50.122;19.864;2023-11-25T02:47:45;2.50;99.90
11142;DHT22;5625;50.122;19.864;2023-11-25T02:50:16;2.50;99.90
11142;DHT22;5625;50.122;19.864;2023-11-25T02:52:45;2.50;99.90
11142;DHT22;5625;50.122;19.864;2023-11-25T02:55:14;2.50;99.90
11142;DHT22;5625;50.122;19.864;2023-11-25T02:57:44;2.50;99.90
11142;DHT22;5625;50.122;19.864;2023-11-25T03:00:15;2.50;99.90
11142;DHT22;5625;50.122;19.864;2023-11-25T03:02:57;2.50;99.90
11142;DHT22;5625;50.122;19.864;2023-11-25T03:05:35;2.50;99.90
11142;DHT22;5625;50.122;19.864;2023-11-25T03:08:06;2.40;99.90
11142;DHT22;5625;50.122;19.864;2023-11-25T03:10:38;2.40;99.90
11142;DHT22;5625;50.122;19.864;2023-11-25T03:13:10;2.40;99.90
11142;DHT22;5625;50.122;19.864;2023-11-25T03:15:39;2.40;99.90
11142;DHT22;5625;50.122;19.864;2023-11-25T03:18:08;2.50;99.90
11142;DHT22;5625;50.122;19.864;2023-11-25T03:20:39;2.40;99.90
11142;DHT22;5625;50.122;19.864;2023-11-25T03:23:07;2.50;99.90
11142;DHT22;5625;50.122;19.864;2023-11-25T03:25:35;2.40;99.90
11142;DHT22;5625;50.122;19.864;2023-11-25T03:28:06;2.50;99.90
11142;DHT22;5625;50.122;19.864;2023-11-25T03:30:38;2.50;99.90
11142;DHT22;5625;50.122;19.864;2023-11-25T03:33:08;2.50;99.90
11142;DHT22;5625;50.122;19.864;2023-11-25T03:35:36;2.50;99.90
11142;DHT22;5625;50.122;19.864;2023-11-25T03:38:05;2.50;99.90
11142;DHT22;5625;50.122;19.864;2023-11-25T03:40:34;2.50;99.90
11142;DHT22;5625;50.122;19.864;2023-11-25T03:43:02;2.50;99.90
11142;DHT22;5625;50.122;19.864;2023-11-25T03:45:30;2.50;99.90
11142;DHT22;5625;50.122;19.864;2023-11-25T03:48:01;2.50;99.90
11142;DHT22;5625;50.122;19.864;2023-11-25T03:50:29;2.50;99.90
11142;DHT22;5625;50.122;19.864;2023-11-25T03:52:58;2.50;99.90
11142;DHT22;5625;50.122;19.864;2023-11-25T03:55:26;2.50;99.90
11142;DHT22;5625;50.122;19.864;2023-11-25T03:57:55;2.50;99.90
11142;DHT22;5625;50.122;19.864;2023-11-25T04:00:23;2.50;99.90
11142;DHT22;5625;50.122;19.864;2023-11-25T04:02:51;2.50;99.90
11142;DHT22;5625;50.122;19.864;2023-11-25T04:05:21;2.50;99.90
11142;DHT22;5625;50.122;19.864;2023-11-25T04:07:50;2.50;99.90
11142;DHT22;5625;50.122;19.864;2023-11-25T04:10:20;2.50;99.90
11142;DHT22;5625;50.122;19.864;2023-11-25T04:12:49;2.50;99.90
11142;DHT22;5625;50.122;19.864;2023-11-25T04:15:19;2.50;99.90
11142;DHT22;5625;50.122;19.864;2023-11-25T04:17:49;2.50;99.90
11142;DHT22;5625;50.122;19.864;2023-11-25T04:20:20;2.50;99.90
11142;DHT22;5625;50.122;19.864;2023-11-25T04:22:56;2.50;99.90
11142;DHT22;5625;50.122;19.864;2023-11-25T04:25:26;2.40;99.90
11142;DHT22;5625;50.122;19.864;2023-11-25T04:27:55;2.50;99.90
11142;DHT22;5625;50.122;19.864;2023-11-25T04:30:23;2.50;99.90
11142;DHT22;5625;50.122;19.864;2023-11-25T04:32:51;2.50;99.90
11142;DHT22;5625;50.122;19.864;2023-11-25T04:35:21;2.50;99.90
11142;DHT22;5625;50.122;19.864;2023-11-25T04:37:49;2.40;99.90
11142;DHT22;5625;50.122;19.864;2023-11-25T04:40:18;2.50;99.90
11142;DHT22;5625;50.122;19.864;2023-11-25T04:42:46;2.40;99.90
11142;DHT22;5625;50.122;19.864;2023-11-25T04:45:15;2.50;99.90
11142;DHT22;5625;50.122;19.864;2023-11-25T04:47:45;2.40;99.90
11142;DHT22;5625;50.122;19.864;2023-11-25T04:50:15;2.40;99.90
11142;DHT22;5625;50.122;19.864;2023-11-25T04:52:45;2.40;99.90
11142;DHT22;5625;50.122;19.864;2023-11-25T04:55:14;2.50;99.90
11142;DHT22;5625;50.122;19.864;2023-11-25T04:57:43;2.50;99.90
11142;DHT22;5625;50.122;19.864;2023-11-25T05:00:12;2.40;99.90
11142;DHT22;5625;50.122;19.864;2023-11-25T05:02:42;2.40;99.90
11142;DHT22;5625;50.122;19.864;2023-11-25T05:05:11;2.40;99.90
11142;DHT22;5625;50.122;19.864;2023-11-25T05:07:41;2.40;99.90
11142;DHT22;5625;50.122;19.864;2023-11-25T05:10:16;2.40;99.90
11142;DHT22;5625;50.122;19.864;2023-11-25T05:12:50;2.40;99.90
11142;DHT22;5625;50.122;19.864;2023-11-25T05:15:19;2.40;99.90
11142;DHT22;5625;50.122;19.864;2023-11-25T05:17:51;2.40;99.90
11142;DHT22;5625;50.122;19.864;2023-11-25T05:20:20;2.40;99.90
11142;DHT22;5625;50.122;19.864;2023-11-25T05:22:51;2.40;99.90
11142;DHT22;5625;50.122;19.864;2023-11-25T05:25:22;2.40;99.90
11142;DHT22;5625;50.122;19.864;2023-11-25T05:27:50;2.40;99.90
11142;DHT22;5625;50.122;19.864;2023-11-25T05:30:18;2.40;99.90
11142;DHT22;5625;50.122;19.864;2023-11-25T05:32:49;2.40;99.90
11142;DHT22;5625;50.122;19.864;2023-11-25T05:35:17;2.40;99.90
11142;DHT22;5625;50.122;19.864;2023-11-25T05:37:46;2.50;99.90
11142;DHT22;5625;50.122;19.864;2023-11-25T05:40:15;2.40;99.90
11142;DHT22;5625;50.122;19.864;2023-11-25T05:42:45;2.40;99.90
11142;DHT22;5625;50.122;19.864;2023-11-25T05:45:20;2.40;99.90
11142;DHT22;5625;50.122;19.864;2023-11-25T05:47:53;2.40;99.90
11142;DHT22;5625;50.122;19.864;2023-11-25T05:50:21;2.40;99.90
11142;DHT22;5625;50.122;19.864;2023-11-25T05:52:50;2.40;99.90
11142;DHT22;5625;50.122;19.864;2023-11-25T05:55:18;2.40;99.90
11142;DHT22;5625;50.122;19.864;2023-11-25T05:57:49;2.40;99.90
11142;DHT22;5625;50.122;19.864;2023-11-25T06:00:19;2.30;99.90
11142;DHT22;5625;50.122;19.864;2023-11-25T06:02:50;2.40;99.90
11142;DHT22;5625;50.122;19.864;2023-11-25T06:05:19;2.30;94.60
11142;DHT22;5625;50.122;19.864;2023-11-25T06:07:48;2.30;90.70
11142;DHT22;5625;50.122;19.864;2023-11-25T06:10:16;2.30;84.40
11142;DHT22;5625;50.122;19.864;2023-11-25T06:12:45;2.30;74.60
11142;DHT22;5625;50.122;19.864;2023-11-25T06:15:17;2.30;56.80
11142;DHT22;5625;50.122;19.864;2023-11-25T06:17:46;2.30;48.00
11142;DHT22;5625;50.122;19.864;2023-11-25T06:20:15;2.20;48.90
11142;DHT22;5625;50.122;19.864;2023-11-25T06:22:43;2.20;50.30
11142;DHT22;5625;50.122;19.864;2023-11-25T06:25:12;2.30;54.00
11142;DHT22;5625;50.122;19.864;2023-11-25T06:27:43;2.30;54.50
11142;DHT22;5625;50.122;19.864;2023-11-25T06:30:15;2.20;45.90
11142;DHT22;5625;50.122;19.864;2023-11-25T06:32:44;2.20;38.40
11142;DHT22;5625;50.122;19.864;2023-11-25T06:35:12;2.20;40.60
11142;DHT22;5625;50.122;19.864;2023-11-25T06:37:40;2.30;41.80
11142;DHT22;5625;50.122;19.864;2023-11-25T06:40:10;2.30;28.50
11142;DHT22;5625;50.122;19.864;2023-11-25T06:42:41;2.30;31.30
11142;DHT22;5625;50.122;19.864;2023-11-25T06:45:10;2.30;27.00
11142;DHT22;5625;50.122;19.864;2023-11-25T06:47:42;2.30;24.00
11142;DHT22;5625;50.122;19.864;2023-11-25T06:50:11;2.30;21.80
11142;DHT22;5625;50.122;19.864;2023-11-25T06:52:39;2.30;18.10
11142;DHT22;5625;50.122;19.864;2023-11-25T06:55:08;2.30;14.10
11142;DHT22;5625;50.122;19.864;2023-11-25T06:57:38;2.30;10.50
11142;DHT22;5625;50.122;19.864;2023-11-25T07:00:09;2.30;8.10
11142;DHT22;5625;50.122;19.864;2023-11-25T07:02:38;2.40;1.80
11142;DHT22;5625;50.122;19.864;2023-11-25T07:05:10;2.40;8.50
11142;DHT22;5625;50.122;19.864;2023-11-25T07:07:41;2.30;10.10
11142;DHT22;5625;50.122;19.864;2023-11-25T07:10:09;2.30;17.60
11142;DHT22;5625;50.122;19.864;2023-11-25T07:12:41;2.40;24.80
11142;DHT22;5625;50.122;19.864;2023-11-25T07:15:11;2.30;28.60
11142;DHT22;5625;50.122;19.864;2023-11-25T07:17:41;2.30;10.60
11142;DHT22;5625;50.122;19.864;2023-11-25T07:20:11;2.30;3.20
11142;DHT22;5625;50.122;19.864;2023-11-25T07:22:41;2.30;1.00
11142;DHT22;5625;50.122;19.864;2023-11-25T07:25:10;2.30;1.00
11142;DHT22;5625;50.122;19.864;2023-11-25T07:27:40;2.30;1.00
11142;DHT22;5625;50.122;19.864;2023-11-25T07:30:09;2.40;1.00
11142;DHT22;5625;50.122;19.864;2023-11-25T07:32:37;2.40;1.00
11142;DHT22;5625;50.122;19.864;2023-11-25T07:35:06;2.40;1.00
11142;DHT22;5625;50.122;19.864;2023-11-25T07:37:37;2.50;1.00
11142;DHT22;5625;50.122;19.864;2023-11-25T07:40:07;2.40;1.00
11142;DHT22;5625;50.122;19.864;2023-11-25T07:42:41;2.50;99.90
11142;DHT22;5625;50.122;19.864;2023-11-25T07:45:11;2.50;99.90
11142;DHT22;5625;50.122;19.864;2023-11-25T07:47:39;2.40;99.90
11142;DHT22;5625;50.122;19.864;2023-11-25T07:50:10;2.50;99.90
11142;DHT22;5625;50.122;19.864;2023-11-25T07:52:40;2.50;99.90
11142;DHT22;5625;50.122;19.864;2023-11-25T07:55:08;2.50;99.90
11142;DHT22;5625;50.122;19.864;2023-11-25T07:57:38;2.60;99.90
11142;DHT22;5625;50.122;19.864;2023-11-25T08:00:07;2.60;99.90
11142;DHT22;5625;50.122;19.864;2023-11-25T08:02:39;2.70;99.90
11142;DHT22;5625;50.122;19.864;2023-11-25T08:05:08;2.70;99.90
11142;DHT22;5625;50.122;19.864;2023-11-25T08:07:36;2.60;99.90
11142;DHT22;5625;50.122;19.864;2023-11-25T08:10:07;2.60;99.90
11142;DHT22;5625;50.122;19.864;2023-11-25T08:12:36;2.60;99.90
11142;DHT22;5625;50.122;19.864;2023-11-25T08:15:05;2.60;99.90
11142;DHT22;5625;50.122;19.864;2023-11-25T08:17:33;2.60;99.90
11142;DHT22;5625;50.122;19.864;2023-11-25T08:20:03;2.60;99.90
11142;DHT22;5625;50.122;19.864;2023-11-25T08:22:35;2.70;99.90
11142;DHT22;5625;50.122;19.864;2023-11-25T08:25:06;2.70;99.90
11142;DHT22;5625;50.122;19.864;2023-11-25T08:27:36;2.70;99.90
11142;DHT22;5625;50.122;19.864;2023-11-25T08:30:05;2.80;99.90
11142;DHT22;5625;50.122;19.864;2023-11-25T08:32:38;2.80;99.90
11142;DHT22;5625;50.122;19.864;2023-11-25T08:35:07;2.90;99.90
11142;DHT22;5625;50.122;19.864;2023-11-25T08:37:37;3.10;99.90
11142;DHT22;5625;50.122;19.864;2023-11-25T08:40:10;3.30;99.90
11142;DHT22;5625;50.122;19.864;2023-11-25T08:42:43;3.80;99.90
11142;DHT22;5625;50.122;19.864;2023-11-25T08:45:13;4.00;1.00
11142;DHT22;5625;50.122;19.864;2023-11-25T08:47:42;4.60;99.90
11142;DHT22;5625;50.122;19.864;2023-11-25T08:50:11;5.30;99.90
11142;DHT22;5625;50.122;19.864;2023-11-25T08:52:43;5.80;99.90
11142;DHT22;5625;50.122;19.864;2023-11-25T08:55:15;6.30;1.00
11142;DHT22;5625;50.122;19.864;2023-11-25T08:57:47;6.70;1.00
11142;DHT22;5625;50.122;19.864;2023-11-25T09:00:16;7.00;1.00
11142;DHT22;5625;50.122;19.864;2023-11-25T09:02:47;7.20;99.90
11142;DHT22;5625;50.122;19.864;2023-11-25T09:05:18;7.40;13.50
11142;DHT22;5625;50.122;19.864;2023-11-25T09:07:49;7.70;1.00
11142;DHT22;5625;50.122;19.864;2023-11-25T09:10:20;7.60;99.90
11142;DHT22;5625;50.122;19.864;2023-11-25T09:12:49;7.10;99.90
11142;DHT22;5625;50.122;19.864;2023-11-25T09:15:20;6.50;99.90
11142;DHT22;5625;50.122;19.864;2023-11-25T09:17:49;6.00;99.90
11142;DHT22;5625;50.122;19.864;2023-11-25T09:20:18;5.70;1.00
11142;DHT22;5625;50.122;19.864;2023-11-25T09:22:48;5.40;99.90
11142;DHT22;5625;50.122;19.864;2023-11-25T09:25:17;5.20;99.90
11142;DHT22;5625;50.122;19.864;2023-11-25T09:27:47;5.10;9.00
11142;DHT22;5625;50.122;19.864;2023-11-25T09:30:17;5.00;99.90
11142;DHT22;5625;50.122;19.864;2023-11-25T09:32:45;5.00;95.20
11142;DHT22;5625;50.122;19.864;2023-11-25T09:35:13;5.00;99.90
11142;DHT22;5625;50.122;19.864;2023-11-25T09:37:43;4.90;99.90
11142;DHT22;5625;50.122;19.864;2023-11-25T09:40:12;4.80;99.90
11142;DHT22;5625;50.122;19.864;2023-11-25T09:42:44;4.80;99.90
11142;DHT22;5625;50.122;19.864;2023-11-25T09:45:14;4.70;99.90
11142;DHT22;5625;50.122;19.864;2023-11-25T09:47:43;4.50;99.90
11142;DHT22;5625;50.122;19.864;2023-11-25T09:50:12;4.40;1.00
11142;DHT22;5625;50.122;19.864;2023-11-25T09:52:45;4.50;99.90
11142;DHT22;5625;50.122;19.864;2023-11-25T09:55:17;4.50;1.00
11142;DHT22;5625;50.122;19.864;2023-11-25T09:57:47;5.00;99.90
11142;DHT22;5625;50.122;19.864;2023-11-25T10:00:19;5.40;1.00
11142;DHT22;5625;50.122;19.864;2023-11-25T10:02:52;5.50;37.60
11142;DHT22;5625;50.122;19.864;2023-11-25T10:05:21;5.40;99.90
11142;DHT22;5625;50.122;19.864;2023-11-25T10:07:49;5.30;99.90
11142;DHT22;5625;50.122;19.864;2023-11-25T10:10:17;5.10;8.10
11142;DHT22;5625;50.122;19.864;2023-11-25T10:12:51;4.90;99.90
11142;DHT22;5625;50.122;19.864;2023-11-25T10:15:21;4.70;99.90
11142;DHT22;5625;50.122;19.864;2023-11-25T10:17:50;4.60;99.90
11142;DHT22;5625;50.122;19.864;2023-11-25T10:20:21;4.60;99.90
11142;DHT22;5625;50.122;19.864;2023-11-25T10:22:51;4.60;99.90
11142;DHT22;5625;50.122;19.864;2023-11-25T10:25:21;4.60;99.90
11142;DHT22;5625;50.122;19.864;2023-11-25T10:27:50;4.60;1.00
11142;DHT22;5625;50.122;19.864;2023-11-25T10:30:22;4.60;99.90
11142;DHT22;5625;50.122;19.864;2023-11-25T10:32:52;4.50;99.90
11142;DHT22;5625;50.122;19.864;2023-11-25T10:35:24;4.50;93.70
11142;DHT22;5625;50.122;19.864;2023-11-25T10:37:52;4.40;99.90
11142;DHT22;5625;50.122;19.864;2023-11-25T10:40:22;4.30;99.90
11142;DHT22;5625;50.122;19.864;2023-11-25T10:42:52;4.20;1.00
11142;DHT22;5625;50.122;19.864;2023-11-25T10:45:22;4.20;22.10
11142;DHT22;5625;50.122;19.864;2023-11-25T10:47:55;4.10;1.00
11142;DHT22;5625;50.122;19.864;2023-11-25T10:50:25;4.10;99.90
11142;DHT22;5625;50.122;19.864;2023-11-25T10:52:55;4.10;1.00
11142;DHT22;5625;50.122;19.864;2023-11-25T10:55:26;4.00;99.90
11142;DHT22;5625;50.122;19.864;2023-11-25T10:57:56;4.00;99.90
11142;DHT22;5625;50.122;19.864;2023-11-25T11:00:30;3.90;76.90
11142;DHT22;5625;50.122;19.864;2023-11-25T11:03:02;3.90;1.00
11142;DHT22;5625;50.122;19.864;2023-11-25T11:05:39;3.90;23.80
11142;DHT22;5625;50.122;19.864;2023-11-25T11:08:15;3.90;59.40
11142;DHT22;5625;50.122;19.864;2023-11-25T11:10:49;3.80;99.90
11142;DHT22;5625;50.122;19.864;2023-11-25T11:13:23;3.80;99.90
11142;DHT22;5625;50.122;19.864;2023-11-25T11:15:57;3.70;1.00
11142;DHT22;5625;50.122;19.864;2023-11-25T11:18:28;3.60;1.00
11142;DHT22;5625;50.122;19.864;2023-11-25T11:21:05;3.60;90.90
11142;DHT22;5625;50.122;19.864;2023-11-25T11:23:35;3.50;99.90
11142;DHT22;5625;50.122;19.864;2023-11-25T11:26:21;3.50;99.90
11142;DHT22;5625;50.122;19.864;2023-11-25T11:29:03;3.40;99.90
11142;DHT22;5625;50.122;19.864;2023-11-25T11:32:00;3.40;99.90
11142;DHT22;5625;50.122;19.864;2023-11-25T11:34:30;3.40;1.00
11142;DHT22;5625;50.122;19.864;2023-11-25T11:37:00;3.40;1.00
11142;DHT22;5625;50.122;19.864;2023-11-25T11:39:33;3.50;1.00
11142;DHT22;5625;50.122;19.864;2023-11-25T11:42:23;3.60;1.00
11142;DHT22;5625;50.122;19.864;2023-11-25T11:45:00;3.70;1.00
11142;DHT22;5625;50.122;19.864;2023-11-25T11:47:47;3.70;99.90
11142;DHT22;5625;50.122;19.864;2023-11-25T11:50:19;3.70;99.90
11142;DHT22;5625;50.122;19.864;2023-11-25T11:53:10;3.70;99.90
11142;DHT22;5625;50.122;19.864;2023-11-25T11:55:48;3.70;5.70
11142;DHT22;5625;50.122;19.864;2023-11-25T11:58:18;3.50;1.00
11142;DHT22;5625;50.122;19.864;2023-11-25T12:00:48;3.50;1.00
11142;DHT22;5625;50.122;19.864;2023-11-25T12:03:26;3.50;68.20
11142;DHT22;5625;50.122;19.864;2023-11-25T12:06:15;3.40;99.90
11142;DHT22;5625;50.122;19.864;2023-11-25T12:08:52;3.40;99.90
11142;DHT22;5625;50.122;19.864;2023-11-25T12:11:23;3.50;99.90
11142;DHT22;5625;50.122;19.864;2023-11-25T12:14:02;3.50;71.00
11142;DHT22;5625;50.122;19.864;2023-11-25T12:16:36;3.50;1.00
11142;DHT22;5625;50.122;19.864;2023-11-25T12:19:17;3.50;1.00
11142;DHT22;5625;50.122;19.864;2023-11-25T12:21:46;3.50;99.90
11142;DHT22;5625;50.122;19.864;2023-11-25T12:24:14;3.40;40.70
11142;DHT22;5625;50.122;19.864;2023-11-25T12:26:44;3.40;1.00
11142;DHT22;5625;50.122;19.864;2023-11-25T12:29:17;3.40;1.00
11142;DHT22;5625;50.122;19.864;2023-11-25T12:31:52;3.40;99.90
11142;DHT22;5625;50.122;19.864;2023-11-25T12:34:22;3.40;99.90
11142;DHT22;5625;50.122;19.864;2023-11-25T12:36:50;3.30;1.00
11142;DHT22;5625;50.122;19.864;2023-11-25T12:39:18;3.20;99.90
11142;DHT22;5625;50.122;19.864;2023-11-25T12:41:47;3.20;99.90
11142;DHT22;5625;50.122;19.864;2023-11-25T12:44:16;3.10;99.90
11142;DHT22;5625;50.122;19.864;2023-11-25T12:46:59;3.10;1.00
11142;DHT22;5625;50.122;19.864;2023-11-25T12:49:30;3.10;1.00
11142;DHT22;5625;50.122;19.864;2023-11-25T12:51:58;3.20;1.00
11142;DHT22;5625;50.122;19.864;2023-11-25T12:54:42;3.20;1.00
11142;DHT22;5625;50.122;19.864;2023-11-25T12:57:11;3.20;1.00
11142;DHT22;5625;50.122;19.864;2023-11-25T12:59:40;3.30;1.00
11142;DHT22;5625;50.122;19.864;2023-11-25T13:02:09;3.30;99.90
11142;DHT22;5625;50.122;19.864;2023-11-25T13:04:44;3.40;99.90
11142;DHT22;5625;50.122;19.864;2023-11-25T13:07:27;3.30;99.90
11142;DHT22;5625;50.122;19.864;2023-11-25T13:09:57;3.30;1.00
11142;DHT22;5625;50.122;19.864;2023-11-25T13:12:27;3.20;1.00
11142;DHT22;5625;50.122;19.864;2023-11-25T13:14:56;3.20;1.00
11142;DHT22;5625;50.122;19.864;2023-11-25T13:17:24;3.20;1.00
11142;DHT22;5625;50.122;19.864;2023-11-25T13:19:54;3.10;1.00
11142;DHT22;5625;50.122;19.864;2023-11-25T13:22:24;3.10;1.00
11142;DHT22;5625;50.122;19.864;2023-11-25T13:24:52;3.10;1.00
11142;DHT22;5625;50.122;19.864;2023-11-25T13:27:20;3.10;1.00
11142;DHT22;5625;50.122;19.864;2023-11-25T13:29:49;3.10;1.00
11142;DHT22;5625;50.122;19.864;2023-11-25T13:32:17;3.10;25.00
11142;DHT22;5625;50.122;19.864;2023-11-25T13:34:46;3.00;99.90
11142;DHT22;5625;50.122;19.864;2023-11-25T13:37:15;3.10;99.90
11142;DHT22;5625;50.122;19.864;2023-11-25T13:39:44;3.10;99.90
11142;DHT22;5625;50.122;19.864;2023-11-25T13:42:13;3.10;99.90
11142;DHT22;5625;50.122;19.864;2023-11-25T13:44:41;3.10;99.90
11142;DHT22;5625;50.122;19.864;2023-11-25T13:47:09;3.00;99.90
11142;DHT22;5625;50.122;19.864;2023-11-25T13:49:38;3.10;99.90
11142;DHT22;5625;50.122;19.864;2023-11-25T13:52:06;3.00;99.90
11142;DHT22;5625;50.122;19.864;2023-11-25T13:54:37;3.00;99.90
11142;DHT22;5625;50.122;19.864;2023-11-25T13:57:06;3.00;99.90
11142;DHT22;5625;50.122;19.864;2023-11-25T13:59:34;3.00;99.90
11142;DHT22;5625;50.122;19.864;2023-11-25T14:02:03;3.00;99.90
11142;DHT22;5625;50.122;19.864;2023-11-25T14:04:31;3.00;99.90
11142;DHT22;5625;50.122;19.864;2023-11-25T14:07:00;3.00;99.90
11142;DHT22;5625;50.122;19.864;2023-11-25T14:09:28;3.00;99.90
11142;DHT22;5625;50.122;19.864;2023-11-25T14:11:57;2.90;99.90
11142;DHT22;5625;50.122;19.864;2023-11-25T14:14:27;2.90;99.90
11142;DHT22;5625;50.122;19.864;2023-11-25T14:16:55;2.90;64.50
11142;DHT22;5625;50.122;19.864;2023-11-25T14:19:25;2.90;1.00
11142;DHT22;5625;50.122;19.864;2023-11-25T14:21:54;2.90;12.40
11142;DHT22;5625;50.122;19.864;2023-11-25T14:24:22;2.90;1.00
11142;DHT22;5625;50.122;19.864;2023-11-25T14:26:52;2.80;34.00
11142;DHT22;5625;50.122;19.864;2023-11-25T14:29:22;2.80;16.50
11142;DHT22;5625;50.122;19.864;2023-11-25T14:31:51;2.80;32.40
11142;DHT22;5625;50.122;19.864;2023-11-25T14:34:19;2.80;1.00
11142;DHT22;5625;50.122;19.864;2023-11-25T14:36:47;2.80;1.00
11142;DHT22;5625;50.122;19.864;2023-11-25T14:39:15;2.80;1.00
11142;DHT22;5625;50.122;19.864;2023-11-25T14:41:45;2.80;1.00
11142;DHT22;5625;50.122;19.864;2023-11-25T14:44:15;2.80;24.20
11142;DHT22;5625;50.122;19.864;2023-11-25T14:46:48;2.70;63.60
11142;DHT22;5625;50.122;19.864;2023-11-25T14:49:17;2.70;93.30
11142;DHT22;5625;50.122;19.864;2023-11-25T14:51:45;2.70;99.90
11142;DHT22;5625;50.122;19.864;2023-11-25T14:54:13;2.70;99.90
11142;DHT22;5625;50.122;19.864;2023-11-25T14:56:42;2.60;99.90
11142;DHT22;5625;50.122;19.864;2023-11-25T14:59:11;2.60;99.90
11142;DHT22;5625;50.122;19.864;2023-11-25T15:01:40;2.60;99.90
11142;DHT22;5625;50.122;19.864;2023-11-25T15:04:11;2.60;99.90
11142;DHT22;5625;50.122;19.864;2023-11-25T15:06:40;2.50;99.90
11142;DHT22;5625;50.122;19.864;2023-11-25T15:09:09;2.50;99.90
11142;DHT22;5625;50.122;19.864;2023-11-25T15:11:39;2.50;99.90
11142;DHT22;5625;50.122;19.864;2023-11-25T15:14:07;2.40;99.90
11142;DHT22;5625;50.122;19.864;2023-11-25T15:16:36;2.40;99.90
11142;DHT22;5625;50.122;19.864;2023-11-25T15:19:04;2.40;99.90
11142;DHT22;5625;50.122;19.864;2023-11-25T15:21:34;2.40;99.90
11142;DHT22;5625;50.122;19.864;2023-11-25T15:24:03;2.40;99.90
11142;DHT22;5625;50.122;19.864;2023-11-25T15:26:32;2.40;99.90
11142;DHT22;5625;50.122;19.864;2023-11-25T15:29:01;2.40;99.90
11142;DHT22;5625;50.122;19.864;2023-11-25T15:31:30;2.40;99.90
11142;DHT22;5625;50.122;19.864;2023-11-25T15:33:58;2.40;99.90
11142;DHT22;5625;50.122;19.864;2023-11-25T15:36:26;2.40;99.90
11142;DHT22;5625;50.122;19.864;2023-11-25T15:38:56;2.40;99.90
11142;DHT22;5625;50.122;19.864;2023-11-25T15:41:24;2.40;99.90
11142;DHT22;5625;50.122;19.864;2023-11-25T15:43:52;2.40;99.90
11142;DHT22;5625;50.122;19.864;2023-11-25T15:46:21;2.40;99.90
11142;DHT22;5625;50.122;19.864;2023-11-25T15:48:52;2.40;99.90
11142;DHT22;5625;50.122;19.864;2023-11-25T15:51:20;2.30;99.90
11142;DHT22;5625;50.122;19.864;2023-11-25T15:53:49;2.30;99.90
11142;DHT22;5625;50.122;19.864;2023-11-25T15:56:19;2.30;99.90
11142;DHT22;5625;50.122;19.864;2023-11-25T15:58:47;2.30;99.90
11142;DHT22;5625;50.122;19.864;2023-11-25T16:01:16;2.20;99.90
11142;DHT22;5625;50.122;19.864;2023-11-25T16:03:44;2.20;99.90
11142;DHT22;5625;50.122;19.864;2023-11-25T16:06:12;2.20;99.90
11142;DHT22;5625;50.122;19.864;2023-11-25T16:08:42;2.20;99.90